< < Back
Terminal Aerodrome Forecast


Current Version              Previous Versions:   1  2  3  4  5  6  7  8  9  

Terminal Aerodrome Forecast

787
FTUS42 KGSP 190800 AAA
TAFAND
TAF AMD
KAND 190859Z 1909/2006 04013G22KT P6SM -RADZ SCT008 OVC040
      TEMPO 1910/1912 5SM -RADZ BR OVC008
     FM191200 04014G25KT P6SM -RA OVC020
     FM191900 04015G25KT P6SM VCSH OVC030
     FM200300 04013G21KT P6SM OVC010=



Latest METAR

783
SAUS70 KWBC 191400 RRC
MTRAND
METAR KAND 191356Z AUTO 04012G22KT 10SM BKN012 BKN017 OVC029 12/10 A3010
RMK AO2 RAE02 SLP190 P0000 T01170100


USA.gov is the U.S. government's official web portal to all federal, state and local government web resources and services.